createdAt,value
2018-06-09T00:00:20.948Z,28.93
2018-06-09T00:01:24.306Z,26.27
2018-06-09T00:02:27.656Z,27.03
2018-06-09T00:03:31.039Z,27.43
2018-06-09T00:04:34.399Z,26.87
2018-06-09T00:05:37.779Z,22.10
2018-06-09T00:06:41.113Z,29.40
2018-06-09T00:07:44.488Z,23.00
2018-06-09T00:08:47.843Z,27.33
2018-06-09T00:09:51.232Z,24.17
2018-06-09T00:10:54.753Z,22.37
2018-06-09T00:11:58.104Z,28.27
2018-06-09T00:13:01.485Z,25.20
2018-06-09T00:14:04.818Z,36.43
2018-06-09T00:15:08.173Z,27.27
2018-06-09T00:16:11.279Z,26.57
2018-06-09T00:17:14.615Z,25.00
2018-06-09T00:18:17.963Z,25.20
2018-06-09T00:19:21.299Z,25.23
2018-06-09T00:20:24.660Z,22.80
2018-06-09T00:21:28.066Z,24.37
2018-06-09T00:22:31.436Z,25.47
2018-06-09T00:23:34.790Z,26.87
2018-06-09T00:24:38.119Z,22.93
2018-06-09T00:25:41.443Z,37.77
2018-06-09T00:26:45.667Z,27.63
2018-06-09T00:27:49.027Z,29.00
2018-06-09T00:28:52.380Z,27.37
2018-06-09T00:29:55.744Z,25.52
2018-06-09T00:30:59.153Z,23.23
2018-06-09T00:32:02.490Z,29.00
2018-06-09T00:33:05.833Z,27.17
2018-06-09T00:34:15.922Z,24.12
2018-06-09T00:35:19.279Z,25.97
2018-06-09T00:36:22.653Z,27.30
2018-06-09T00:37:26.024Z,25.87
2018-06-09T00:38:29.415Z,29.20
2018-06-09T00:39:32.762Z,27.40
2018-06-09T00:40:36.118Z,33.70
2018-06-09T00:41:39.512Z,29.67
2018-06-09T00:42:42.876Z,24.60
2018-06-09T00:44:55.928Z,29.25
2018-06-09T00:45:59.282Z,31.00
2018-06-09T00:47:02.663Z,28.67
2018-06-09T00:48:06.030Z,26.40
2018-06-09T00:49:09.376Z,22.45
2018-06-09T00:50:12.728Z,28.65
2018-06-09T00:51:16.103Z,27.07
2018-06-09T00:52:19.483Z,24.90
2018-06-09T00:53:22.840Z,26.55
2018-06-09T00:54:26.251Z,28.12
2018-06-09T00:55:29.601Z,27.17
2018-06-09T00:56:43.525Z,33.83
2018-06-09T00:57:46.859Z,27.20
2018-06-09T00:58:50.202Z,24.47
2018-06-09T00:59:53.575Z,27.25
2018-06-09T01:00:56.922Z,32.48
2018-06-09T01:02:00.272Z,36.53
2018-06-09T01:03:03.630Z,28.32
2018-06-09T01:04:07.205Z,29.20
2018-06-09T01:05:10.600Z,33.18
2018-06-09T01:06:13.935Z,30.57
2018-06-09T01:07:17.344Z,36.10
2018-06-09T01:08:20.672Z,31.15
2018-06-09T01:09:24.018Z,33.53
2018-06-09T01:10:27.376Z,29.42
2018-06-09T01:11:30.859Z,30.90
2018-06-09T01:12:34.246Z,31.52
2018-06-09T01:13:37.592Z,28.92
2018-06-09T01:14:40.986Z,30.97
2018-06-09T01:15:44.336Z,26.10
2018-06-09T01:16:47.699Z,34.40
2018-06-09T01:17:51.051Z,27.55
2018-06-09T01:18:54.398Z,29.67
2018-06-09T01:19:57.783Z,31.37
2018-06-09T01:21:01.144Z,28.75
2018-06-09T01:22:04.561Z,33.38
2018-06-09T01:23:07.908Z,30.75
2018-06-09T01:24:11.286Z,30.37
2018-06-09T01:25:14.619Z,28.05
2018-06-09T01:26:17.984Z,27.45
2018-06-09T01:27:21.337Z,35.25
2018-06-09T01:28:24.689Z,27.85
2018-06-09T01:29:28.076Z,36.45
2018-06-09T01:30:31.415Z,49.42
2018-06-09T01:31:34.787Z,27.25
2018-06-09T01:32:38.136Z,28.00
2018-06-09T01:33:41.517Z,34.67
2018-06-09T01:34:44.890Z,29.98
2018-06-09T01:35:48.233Z,31.60
2018-06-09T01:36:51.575Z,31.23
2018-06-09T01:37:54.921Z,30.17
2018-06-09T01:38:58.307Z,29.07
2018-06-09T01:40:01.675Z,29.02
2018-06-09T01:41:05.379Z,29.60
2018-06-09T01:42:08.736Z,30.27
2018-06-09T01:43:12.100Z,31.05
2018-06-09T01:44:15.478Z,29.25
2018-06-09T01:45:18.822Z,29.80
2018-06-09T01:46:22.179Z,30.17
2018-06-09T01:47:25.599Z,30.95
2018-06-09T01:48:28.942Z,32.70
2018-06-09T01:49:32.345Z,27.82
2018-06-09T01:50:35.687Z,32.05
2018-06-09T01:51:39.035Z,32.15
2018-06-09T01:52:42.095Z,30.70
2018-06-09T01:53:45.427Z,29.27
2018-06-09T01:54:48.826Z,40.50
2018-06-09T01:55:52.191Z,32.20
2018-06-09T01:56:55.539Z,31.40
2018-06-09T01:57:58.879Z,32.65
2018-06-09T01:59:02.219Z,31.17
2018-06-09T02:00:05.631Z,30.62
2018-06-09T02:01:08.976Z,30.50
2018-06-09T02:02:12.344Z,33.15
2018-06-09T02:03:15.704Z,29.32
2018-06-09T02:04:19.078Z,30.75
2018-06-09T02:05:22.456Z,33.80
2018-06-09T02:06:25.855Z,30.17
2018-06-09T02:07:29.189Z,27.37
2018-06-09T02:08:32.533Z,31.90
2018-06-09T02:09:35.892Z,29.35
2018-06-09T02:10:39.232Z,33.15
2018-06-09T02:11:42.618Z,30.75
2018-06-09T02:12:45.995Z,34.27
2018-06-09T02:13:49.346Z,31.55
2018-06-09T02:14:52.671Z,24.18
2018-06-09T02:15:56.011Z,26.30
2018-06-09T02:16:59.375Z,29.52
2018-06-09T02:18:02.717Z,33.90
2018-06-09T02:19:06.059Z,30.75
2018-06-09T02:20:09.412Z,28.92
2018-06-09T02:21:12.756Z,28.85
2018-06-09T02:22:16.122Z,31.20
2018-06-09T02:23:19.509Z,25.35
2018-06-09T02:24:22.836Z,27.13
2018-06-09T02:25:26.184Z,41.80
2018-06-09T02:26:29.538Z,28.52
2018-06-09T02:27:33.277Z,29.52
2018-06-09T02:28:36.676Z,27.85
2018-06-09T02:29:40.016Z,25.00
2018-06-09T02:30:43.369Z,28.75
2018-06-09T02:31:46.732Z,30.50
2018-06-09T02:32:50.073Z,31.50
2018-06-09T02:33:53.453Z,28.00
2018-06-09T02:34:56.789Z,29.40
2018-06-09T02:36:00.123Z,28.45
2018-06-09T02:37:03.452Z,31.23
2018-06-09T02:38:06.803Z,30.35
2018-06-09T02:39:10.203Z,26.02
2018-06-09T02:40:13.565Z,26.68
2018-06-09T02:41:16.933Z,25.50
2018-06-09T02:42:20.282Z,28.83
2018-06-09T02:43:23.624Z,26.60
2018-06-09T02:44:26.984Z,24.43
2018-06-09T02:45:30.336Z,27.90
2018-06-09T02:46:33.685Z,34.10
2018-06-09T02:47:37.028Z,29.12
2018-06-09T02:48:40.378Z,31.85
2018-06-09T02:49:43.747Z,28.77
2018-06-09T02:50:47.090Z,25.37
2018-06-09T02:51:50.419Z,28.45
2018-06-09T02:52:53.756Z,30.37
2018-06-09T02:53:57.098Z,27.98
2018-06-09T02:55:06.923Z,33.15
2018-06-09T02:56:10.292Z,30.50
2018-06-09T02:57:13.676Z,29.72
2018-06-09T02:58:16.746Z,25.45
2018-06-09T02:59:20.083Z,25.57
2018-06-09T03:00:23.439Z,29.98
2018-06-09T03:01:26.781Z,32.23
2018-06-09T03:02:30.137Z,24.87
2018-06-09T03:03:33.471Z,27.62
2018-06-09T03:04:36.802Z,28.85
2018-06-09T03:05:40.207Z,34.73
2018-06-09T03:06:43.527Z,30.23
2018-06-09T03:07:46.868Z,30.75
2018-06-09T03:08:50.184Z,34.63
2018-06-09T03:09:53.517Z,29.63
2018-06-09T03:10:56.873Z,28.83
2018-06-09T03:12:00.207Z,27.20
2018-06-09T03:13:03.555Z,30.65
2018-06-09T03:14:06.926Z,30.20
2018-06-09T03:15:10.259Z,26.17
2018-06-09T03:16:13.622Z,28.20
2018-06-09T03:17:16.968Z,34.53
2018-06-09T03:18:20.306Z,27.75
2018-06-09T03:19:23.688Z,33.40
2018-06-09T03:20:27.064Z,28.65
2018-06-09T03:21:30.408Z,35.48
2018-06-09T03:22:33.757Z,28.57
2018-06-09T03:23:37.120Z,35.95
2018-06-09T03:24:40.459Z,25.97
2018-06-09T03:25:43.824Z,28.45
2018-06-09T03:26:47.179Z,31.12
2018-06-09T03:27:50.515Z,31.55
2018-06-09T03:28:53.892Z,35.75
2018-06-09T03:29:57.259Z,27.85
2018-06-09T03:31:00.603Z,25.77
2018-06-09T03:32:03.984Z,35.33
2018-06-09T03:33:07.347Z,26.23
2018-06-09T03:34:10.688Z,27.67
2018-06-09T03:35:14.081Z,31.85
2018-06-09T03:36:17.411Z,31.42
2018-06-09T03:37:20.748Z,32.17
2018-06-09T03:38:24.082Z,30.70
2018-06-09T03:39:27.417Z,26.97
2018-06-09T03:40:30.815Z,30.57
2018-06-09T03:41:34.271Z,28.02
2018-06-09T03:42:37.618Z,31.33
2018-06-09T03:43:40.955Z,33.63
2018-06-09T03:44:44.285Z,27.93
2018-06-09T03:45:47.647Z,31.07
2018-06-09T03:46:50.982Z,35.98
2018-06-09T03:47:54.328Z,30.92
2018-06-09T03:48:57.664Z,27.25
2018-06-09T03:50:01.025Z,37.90
2018-06-09T03:51:04.098Z,30.68
2018-06-09T03:52:07.495Z,35.05
2018-06-09T03:53:10.555Z,26.80
2018-06-09T03:54:13.870Z,39.10
2018-06-09T03:55:17.202Z,30.70
2018-06-09T03:56:20.526Z,34.48
2018-06-09T03:57:23.916Z,32.28
2018-06-09T03:58:27.258Z,32.40
2018-06-09T03:59:30.606Z,36.93
2018-06-09T04:00:33.927Z,39.53
2018-06-09T04:01:37.268Z,37.33
2018-06-09T04:02:40.628Z,31.85
2018-06-09T04:03:44.025Z,28.52
2018-06-09T04:04:47.352Z,35.60
2018-06-09T04:05:50.684Z,34.43
2018-06-09T04:06:54.070Z,39.35
2018-06-09T04:07:57.419Z,33.45
2018-06-09T04:09:00.805Z,37.73
2018-06-09T04:10:04.165Z,34.25
2018-06-09T04:11:07.513Z,32.28
2018-06-09T04:12:10.859Z,32.80
2018-06-09T04:13:14.194Z,34.88
2018-06-09T04:14:17.566Z,32.95
2018-06-09T04:15:20.935Z,28.52
2018-06-09T04:16:24.313Z,32.60
2018-06-09T04:17:27.650Z,32.45
2018-06-09T04:18:31.008Z,30.15
2018-06-09T04:19:34.126Z,29.48
2018-06-09T04:20:37.524Z,43.15
2018-06-09T04:21:40.832Z,33.35
2018-06-09T04:22:44.187Z,35.03
2018-06-09T04:23:47.560Z,41.02
2018-06-09T04:24:50.916Z,27.87
2018-06-09T04:25:54.283Z,30.70
2018-06-09T04:26:57.630Z,29.65
2018-06-09T04:28:00.960Z,30.12
2018-06-09T04:29:04.304Z,28.17
2018-06-09T04:30:07.638Z,28.00
2018-06-09T04:31:11.067Z,33.25
2018-06-09T04:32:14.405Z,30.70
2018-06-09T04:33:17.760Z,36.63
2018-06-09T04:34:21.101Z,31.00
2018-06-09T04:35:24.438Z,37.85
2018-06-09T04:36:27.829Z,30.85
2018-06-09T04:37:31.168Z,31.15
2018-06-09T04:38:34.519Z,30.82
2018-06-09T04:39:37.879Z,27.27
2018-06-09T04:40:41.256Z,28.20
2018-06-09T04:41:44.633Z,30.12
2018-06-09T04:42:47.978Z,26.30
2018-06-09T04:43:51.336Z,37.93
2018-06-09T04:44:54.694Z,31.70
2018-06-09T04:45:58.134Z,31.33
2018-06-09T04:47:01.452Z,35.50
2018-06-09T04:48:04.878Z,38.00
2018-06-09T04:49:08.227Z,34.03
2018-06-09T04:50:11.556Z,28.00
2018-06-09T04:51:14.966Z,28.05
2018-06-09T04:52:18.369Z,25.35
2018-06-09T04:53:21.414Z,28.35
2018-06-09T04:54:24.760Z,27.00
2018-06-09T04:55:28.099Z,32.85
2018-06-09T04:56:31.478Z,32.40
2018-06-09T04:57:34.851Z,31.23
2018-06-09T04:58:38.207Z,28.83
2018-06-09T04:59:41.563Z,38.73
2018-06-09T05:00:44.953Z,29.55
2018-06-09T05:01:48.335Z,30.57
2018-06-09T05:02:51.718Z,29.80
2018-06-09T05:03:55.060Z,28.40
2018-06-09T05:04:58.425Z,28.30
2018-06-09T05:06:01.833Z,29.77
2018-06-09T05:07:05.200Z,31.70
2018-06-09T05:08:08.541Z,32.17
2018-06-09T05:09:11.878Z,38.93
2018-06-09T05:10:15.220Z,36.87
2018-06-09T05:11:18.607Z,30.60
2018-06-09T05:12:21.928Z,32.57
2018-06-09T05:13:25.269Z,32.37
2018-06-09T05:14:28.616Z,25.00
2018-06-09T05:15:31.952Z,35.80
2018-06-09T05:16:35.307Z,26.17
2018-06-09T05:17:38.641Z,32.37
2018-06-09T05:18:41.975Z,27.77
2018-06-09T05:19:45.315Z,26.43
2018-06-09T05:20:48.672Z,29.23
2018-06-09T05:21:52.045Z,28.97
2018-06-09T05:22:55.373Z,29.10
2018-06-09T05:23:58.705Z,28.10
2018-06-09T05:25:02.041Z,33.97
2018-06-09T05:26:05.381Z,27.73
2018-06-09T05:27:08.756Z,29.17
2018-06-09T05:28:12.143Z,27.23
2018-06-09T05:29:15.463Z,32.77
2018-06-09T05:30:18.811Z,27.80
2018-06-09T05:31:22.139Z,26.97
2018-06-09T05:32:25.512Z,32.10
2018-06-09T05:33:28.891Z,29.80
2018-06-09T05:34:32.243Z,35.07
2018-06-09T05:35:35.576Z,28.47
2018-06-09T05:36:38.902Z,33.03
2018-06-09T05:37:42.233Z,33.27
2018-06-09T05:38:45.594Z,31.97
2018-06-09T05:39:48.939Z,28.70
2018-06-09T05:40:52.282Z,30.30
2018-06-09T05:41:55.609Z,30.30
2018-06-09T05:42:58.959Z,29.07
2018-06-09T05:44:02.468Z,28.80
2018-06-09T05:45:05.827Z,25.70
2018-06-09T05:46:09.164Z,35.23
2018-06-09T05:47:12.502Z,32.30
2018-06-09T05:48:15.855Z,31.93
2018-06-09T05:49:19.214Z,30.13
2018-06-09T05:50:22.615Z,31.47
2018-06-09T05:51:25.954Z,33.03
2018-06-09T05:52:29.271Z,37.53
2018-06-09T05:53:32.610Z,28.40
2018-06-09T05:54:35.986Z,33.00
2018-06-09T05:55:39.419Z,29.67
2018-06-09T05:56:42.708Z,27.90
2018-06-09T05:57:46.052Z,30.07
2018-06-09T05:58:49.450Z,24.80
2018-06-09T05:59:52.796Z,28.40
2018-06-09T06:00:56.136Z,25.53
2018-06-09T06:01:59.472Z,36.03
2018-06-09T06:03:02.851Z,29.17
2018-06-09T06:04:06.241Z,25.93
2018-06-09T06:05:09.609Z,27.10
2018-06-09T06:06:12.954Z,24.80
2018-06-09T06:07:16.290Z,22.33
2018-06-09T06:08:19.679Z,25.17
2018-06-09T06:09:23.035Z,25.17
2018-06-09T06:10:26.368Z,28.03
2018-06-09T06:11:29.723Z,27.57
2018-06-09T06:12:33.059Z,27.67
2018-06-09T06:13:36.394Z,35.37
2018-06-09T06:14:39.780Z,25.97
2018-06-09T06:15:43.131Z,35.37
2018-06-09T06:16:46.492Z,31.03
2018-06-09T06:17:49.836Z,24.27
2018-06-09T06:18:53.189Z,29.60
2018-06-09T06:19:56.568Z,26.07
2018-06-09T06:20:59.905Z,29.60
2018-06-09T06:22:03.018Z,28.90
2018-06-09T06:23:06.363Z,45.33
2018-06-09T06:24:09.707Z,27.33
2018-06-09T06:25:13.048Z,25.83
2018-06-09T06:26:16.371Z,27.03
2018-06-09T06:27:19.724Z,28.20
2018-06-09T06:28:23.063Z,29.23
2018-06-09T06:29:26.400Z,32.97
2018-06-09T06:30:29.753Z,28.70
2018-06-09T06:31:33.148Z,25.17
2018-06-09T06:32:36.495Z,25.80
2018-06-09T06:33:39.829Z,31.13
2018-06-09T06:34:43.175Z,29.20
2018-06-09T06:35:46.543Z,33.80
2018-06-09T06:36:49.876Z,33.07
2018-06-09T06:37:53.219Z,25.37
2018-06-09T06:38:56.692Z,26.53
2018-06-09T06:40:00.040Z,28.33
2018-06-09T06:41:03.489Z,24.43
2018-06-09T06:42:06.850Z,28.27
2018-06-09T06:43:10.229Z,26.40
2018-06-09T06:44:13.624Z,24.73
2018-06-09T06:45:16.975Z,30.10
2018-06-09T06:46:20.331Z,24.20
2018-06-09T06:47:23.664Z,25.10
2018-06-09T06:48:27.011Z,24.53
2018-06-09T06:49:30.396Z,25.97
2018-06-09T06:50:33.748Z,22.10
2018-06-09T06:51:37.078Z,30.37
2018-06-09T06:52:40.419Z,25.07
2018-06-09T06:53:43.775Z,25.40
2018-06-09T06:54:47.156Z,25.40
2018-06-09T06:55:50.491Z,23.10
2018-06-09T06:56:53.842Z,28.67
2018-06-09T06:57:57.209Z,27.20
2018-06-09T06:59:00.565Z,29.13
2018-06-09T07:00:03.976Z,24.33
2018-06-09T07:01:07.327Z,26.37
2018-06-09T07:02:10.774Z,24.27
2018-06-09T07:03:14.086Z,22.70
2018-06-09T07:04:17.455Z,24.27
2018-06-09T07:05:20.816Z,24.67
2018-06-09T07:06:24.183Z,21.97
2018-06-09T07:07:27.524Z,26.43
2018-06-09T07:08:30.850Z,25.83
2018-06-09T07:09:34.215Z,21.70
2018-06-09T07:10:37.564Z,22.93
2018-06-09T07:11:40.920Z,23.60
2018-06-09T07:12:44.259Z,26.60
2018-06-09T07:13:47.652Z,29.60
2018-06-09T07:14:51.024Z,25.40
2018-06-09T07:15:54.377Z,25.40
2018-06-09T07:16:57.728Z,28.27
2018-06-09T07:18:01.066Z,26.70
2018-06-09T07:19:04.451Z,23.30
2018-06-09T07:20:07.807Z,26.57
2018-06-09T07:21:11.157Z,22.90
2018-06-09T07:22:14.545Z,28.23
2018-06-09T07:23:17.896Z,24.73
2018-06-09T07:24:21.295Z,24.40
2018-06-09T07:25:24.668Z,22.57
2018-06-09T07:26:28.076Z,23.43
2018-06-09T07:27:31.559Z,24.40
2018-06-09T07:28:34.902Z,21.50
2018-06-09T07:29:38.253Z,26.70
2018-06-09T07:30:41.670Z,28.37
2018-06-09T07:31:45.022Z,30.43
2018-06-09T07:32:48.399Z,25.17
2018-06-09T07:33:51.782Z,26.97
2018-06-09T07:34:55.111Z,26.90
2018-06-09T07:35:58.458Z,29.93
2018-06-09T07:37:01.860Z,31.03
2018-06-09T07:38:05.200Z,26.23
2018-06-09T07:39:08.578Z,24.97
2018-06-09T07:40:11.931Z,24.93
2018-06-09T07:41:15.279Z,25.10
2018-06-09T07:42:18.632Z,25.20
2018-06-09T07:43:22.010Z,23.60
2018-06-09T07:44:25.398Z,23.53
2018-06-09T07:45:28.750Z,32.50
2018-06-09T07:46:32.109Z,22.67
2018-06-09T07:47:35.425Z,21.67
2018-06-09T07:48:38.792Z,24.37
2018-06-09T07:49:41.882Z,25.50
2018-06-09T07:50:45.219Z,23.13
2018-06-09T07:51:48.595Z,22.43
2018-06-09T07:52:51.942Z,23.30
2018-06-09T07:53:55.287Z,24.50
2018-06-09T07:54:58.636Z,22.47
2018-06-09T07:56:01.989Z,22.03
2018-06-09T07:57:05.378Z,20.73
2018-06-09T07:58:08.731Z,18.57
2018-06-09T07:59:12.095Z,23.13
2018-06-09T08:00:15.447Z,20.47
2018-06-09T08:01:18.799Z,23.23
2018-06-09T08:02:22.191Z,26.03
2018-06-09T08:03:25.544Z,22.20
2018-06-09T08:04:28.940Z,20.03
2018-06-09T08:05:32.311Z,21.13
2018-06-09T08:06:35.671Z,21.40
2018-06-09T08:07:39.040Z,19.40
2018-06-09T08:08:42.380Z,19.23
2018-06-09T08:09:45.741Z,18.37
2018-06-09T08:10:49.064Z,21.30
2018-06-09T08:11:52.472Z,21.93
2018-06-09T08:12:55.853Z,22.50
2018-06-09T08:13:59.231Z,24.80
2018-06-09T08:15:02.576Z,20.40
2018-06-09T08:16:05.923Z,15.50
2018-06-09T08:17:09.402Z,18.97
2018-06-09T08:18:12.762Z,16.60
2018-06-09T08:19:16.098Z,17.13
2018-06-09T08:20:19.436Z,16.80
2018-06-09T08:21:22.759Z,13.97
2018-06-09T08:22:26.128Z,15.70
2018-06-09T08:23:29.484Z,19.27
2018-06-09T08:24:32.870Z,21.13
2018-06-09T08:25:36.205Z,20.73
2018-06-09T08:26:39.537Z,19.60
2018-06-09T08:27:42.933Z,15.50
2018-06-09T08:28:46.271Z,18.43
2018-06-09T08:29:49.651Z,17.10
2018-06-09T08:30:53.017Z,16.60
2018-06-09T08:31:56.368Z,22.30
2018-06-09T08:32:59.699Z,17.43
2018-06-09T08:34:03.078Z,17.63
2018-06-09T08:35:06.416Z,17.83
2018-06-09T08:36:09.798Z,20.00
2018-06-09T08:37:13.160Z,19.30
2018-06-09T08:38:16.505Z,15.23
2018-06-09T08:39:19.829Z,14.70
2018-06-09T08:40:23.194Z,17.57
2018-06-09T08:41:26.558Z,17.13
2018-06-09T08:42:29.918Z,16.17
2018-06-09T08:43:33.260Z,19.53
2018-06-09T08:44:36.596Z,18.30
2018-06-09T08:45:39.965Z,19.83
2018-06-09T08:46:43.316Z,16.50
2018-06-09T08:47:46.679Z,18.20
2018-06-09T08:48:50.020Z,16.83
2018-06-09T08:49:53.359Z,20.53
2018-06-09T08:50:56.687Z,14.73
2018-06-09T08:52:00.030Z,13.83
2018-06-09T08:53:03.408Z,22.33
2018-06-09T08:54:06.764Z,13.97
2018-06-09T08:55:10.161Z,12.87
2018-06-09T08:56:13.516Z,13.03
2018-06-09T08:57:16.887Z,12.40
2018-06-09T08:58:20.330Z,12.80
2018-06-09T08:59:23.666Z,14.93
2018-06-09T09:00:27.027Z,13.70
2018-06-09T09:01:30.415Z,16.60
2018-06-09T09:02:33.757Z,15.80
2018-06-09T09:03:37.100Z,11.07
2018-06-09T09:04:40.431Z,13.00
2018-06-09T09:05:43.768Z,13.40
2018-06-09T09:06:47.149Z,12.40
2018-06-09T09:07:50.518Z,14.83
2018-06-09T09:08:53.865Z,15.23
2018-06-09T09:09:57.221Z,12.83
2018-06-09T09:11:00.539Z,17.37
2018-06-09T09:12:03.887Z,12.60
2018-06-09T09:13:07.210Z,14.80
2018-06-09T09:14:10.560Z,15.37
2018-06-09T09:15:13.923Z,14.60
2018-06-09T09:16:17.263Z,14.00
2018-06-09T09:17:20.757Z,12.30
2018-06-09T09:18:24.106Z,11.83
2018-06-09T09:19:27.467Z,13.40
2018-06-09T09:20:30.798Z,15.87
2018-06-09T09:21:34.124Z,12.50
2018-06-09T09:22:37.457Z,13.70
2018-06-09T09:23:40.783Z,12.13
2018-06-09T09:24:44.275Z,12.00
2018-06-09T09:25:47.659Z,10.70
2018-06-09T09:26:51.022Z,13.20
2018-06-09T09:27:54.356Z,14.10
2018-06-09T09:28:57.715Z,11.50
2018-06-09T09:30:01.067Z,11.00
2018-06-09T09:31:04.439Z,13.80
2018-06-09T09:32:07.823Z,14.50
2018-06-09T09:33:11.131Z,16.23
2018-06-09T09:34:14.452Z,11.33
2018-06-09T09:35:17.820Z,10.87
2018-06-09T09:36:21.218Z,10.60
2018-06-09T09:37:24.555Z,15.33
2018-06-09T09:38:27.931Z,13.43
2018-06-09T09:39:31.322Z,15.17
2018-06-09T09:40:34.662Z,10.40
2018-06-09T09:41:38.025Z,14.40
2018-06-09T09:42:41.395Z,14.00
2018-06-09T09:43:44.726Z,12.60
2018-06-09T09:44:48.091Z,15.60
2018-06-09T09:45:51.449Z,13.17
2018-06-09T09:46:54.813Z,12.67
2018-06-09T09:47:58.153Z,11.53
2018-06-09T09:49:01.500Z,13.47
2018-06-09T09:50:04.874Z,16.83
2018-06-09T09:51:08.264Z,12.63
2018-06-09T09:52:11.602Z,10.63
2018-06-09T09:53:14.949Z,11.33
2018-06-09T09:54:18.268Z,10.87
2018-06-09T09:55:21.620Z,10.90
2018-06-09T09:56:25.000Z,14.83
2018-06-09T09:57:28.326Z,10.97
2018-06-09T09:58:31.665Z,10.70
2018-06-09T09:59:35.001Z,17.93
2018-06-09T10:00:39.051Z,10.90
2018-06-09T10:01:42.412Z,9.90
2018-06-09T10:02:45.751Z,11.10
2018-06-09T10:03:49.078Z,11.80
2018-06-09T10:04:52.436Z,11.63
2018-06-09T10:05:55.801Z,11.97
2018-06-09T10:06:59.142Z,10.90
2018-06-09T10:08:02.512Z,10.90
2018-06-09T10:09:08.042Z,15.83
2018-06-09T10:10:11.393Z,13.70
2018-06-09T10:11:14.731Z,14.70
2018-06-09T10:12:18.081Z,12.50
2018-06-09T10:13:21.460Z,17.23
2018-06-09T10:14:24.830Z,19.93
2018-06-09T10:15:28.202Z,11.87
2018-06-09T10:16:31.572Z,14.77
2018-06-09T10:17:34.907Z,11.50
2018-06-09T10:18:38.267Z,11.80
2018-06-09T10:19:41.593Z,12.00
2018-06-09T10:20:44.960Z,11.50
2018-06-09T10:21:48.328Z,10.33
2018-06-09T10:22:51.667Z,13.70
2018-06-09T10:23:54.998Z,10.80
2018-06-09T10:24:58.347Z,10.73
2018-06-09T10:26:01.716Z,12.40
2018-06-09T10:27:05.090Z,10.67
2018-06-09T10:28:08.471Z,11.30
2018-06-09T10:29:11.830Z,15.00
2018-06-09T10:30:15.167Z,10.43
2018-06-09T10:31:18.495Z,11.53
2018-06-09T10:32:21.832Z,11.13
2018-06-09T10:33:25.203Z,12.70
2018-06-09T10:34:28.532Z,14.30
2018-06-09T10:35:31.884Z,13.30
2018-06-09T10:36:35.267Z,17.17
2018-06-09T10:37:38.616Z,12.30
2018-06-09T10:38:41.979Z,20.17
2018-06-09T10:39:45.307Z,11.13
2018-06-09T10:40:48.643Z,22.57
2018-06-09T10:41:52.140Z,14.80
2018-06-09T10:42:55.471Z,11.07
2018-06-09T10:43:58.804Z,11.13
2018-06-09T10:45:02.146Z,10.93
2018-06-09T10:46:05.481Z,10.57
2018-06-09T10:47:08.828Z,9.60
2018-06-09T10:48:12.167Z,13.10
2018-06-09T10:49:15.502Z,11.00
2018-06-09T10:50:18.855Z,16.20
2018-06-09T10:51:22.201Z,12.47
2018-06-09T10:52:25.609Z,17.10
2018-06-09T10:53:29.014Z,11.67
2018-06-09T10:54:32.341Z,9.60
2018-06-09T10:55:35.731Z,12.17
2018-06-09T10:56:39.036Z,11.13
2018-06-09T10:57:42.164Z,10.80
2018-06-09T10:58:45.527Z,11.33
2018-06-09T10:59:48.863Z,13.00
2018-06-09T11:00:52.199Z,13.47
2018-06-09T11:01:55.519Z,9.13
2018-06-09T11:02:58.900Z,10.40
2018-06-09T11:04:02.247Z,8.50
2018-06-09T11:05:05.604Z,11.70
2018-06-09T11:06:08.939Z,9.83
2018-06-09T11:07:12.328Z,11.40
2018-06-09T11:08:15.665Z,13.23
2018-06-09T11:09:19.000Z,9.43
2018-06-09T11:10:22.355Z,9.47
2018-06-09T11:11:25.728Z,12.50
2018-06-09T11:12:28.830Z,12.23
2018-06-09T11:13:32.203Z,15.53
2018-06-09T11:14:35.541Z,14.00
2018-06-09T11:15:38.863Z,9.93
2018-06-09T11:16:42.213Z,9.90
2018-06-09T11:17:45.549Z,8.97
2018-06-09T11:18:48.891Z,11.00
2018-06-09T11:19:52.232Z,11.07
2018-06-09T11:20:55.571Z,9.23
2018-06-09T11:21:58.954Z,10.20
2018-06-09T11:23:02.359Z,11.90
2018-06-09T11:24:05.807Z,14.20
2018-06-09T11:25:09.135Z,10.20
2018-06-09T11:26:12.524Z,12.47
2018-06-09T11:27:15.883Z,10.97
2018-06-09T11:28:19.293Z,9.20
2018-06-09T11:29:22.627Z,11.80
2018-06-09T11:30:25.999Z,9.33
2018-06-09T11:31:29.345Z,13.00
2018-06-09T11:32:32.732Z,12.77
2018-06-09T11:33:35.807Z,10.23
2018-06-09T11:34:39.145Z,11.17
2018-06-09T11:35:42.475Z,10.03
2018-06-09T11:36:45.814Z,9.77
2018-06-09T11:37:49.197Z,10.87
2018-06-09T11:38:52.540Z,12.17
2018-06-09T11:39:55.881Z,10.60
2018-06-09T11:40:59.230Z,9.27
2018-06-09T11:42:02.617Z,16.63
2018-06-09T11:43:06.083Z,11.00
2018-06-09T11:44:09.231Z,13.73
2018-06-09T11:45:12.568Z,10.37
2018-06-09T11:46:15.909Z,10.03
2018-06-09T11:47:19.276Z,9.77
2018-06-09T11:48:22.656Z,12.73
2018-06-09T11:49:25.990Z,9.63
2018-06-09T11:50:29.344Z,11.80
2018-06-09T11:52:42.404Z,17.43
2018-06-09T11:53:45.739Z,13.87
2018-06-09T11:54:49.121Z,10.10
2018-06-09T11:55:52.468Z,14.07
2018-06-09T11:56:55.808Z,12.90
2018-06-09T11:57:59.153Z,12.63
2018-06-09T11:59:02.491Z,14.80
2018-06-09T12:00:05.894Z,23.87
2018-06-09T12:01:09.268Z,12.27
2018-06-09T12:02:12.628Z,12.53
2018-06-09T12:03:15.958Z,9.40
2018-06-09T12:04:19.298Z,15.83
2018-06-09T12:05:22.663Z,9.97
2018-06-09T12:06:26.043Z,16.37
2018-06-09T12:07:29.374Z,10.83
2018-06-09T12:08:32.709Z,16.00
2018-06-09T12:09:36.057Z,10.60
2018-06-09T12:10:39.413Z,11.00
2018-06-09T12:12:52.447Z,21.03
2018-06-09T12:13:55.855Z,9.70
2018-06-09T12:14:59.194Z,10.93
2018-06-09T12:16:02.544Z,14.07
2018-06-09T12:17:06.134Z,14.70
2018-06-09T12:18:09.534Z,11.73
2018-06-09T12:19:12.884Z,12.90
2018-06-09T12:20:16.210Z,10.50
2018-06-09T12:21:19.544Z,11.30
2018-06-09T12:22:22.909Z,12.10
2018-06-09T12:23:26.299Z,15.00
2018-06-09T12:24:29.632Z,9.70
2018-06-09T12:25:32.979Z,8.37
2018-06-09T12:26:36.323Z,8.60
2018-06-09T12:27:39.703Z,14.43
2018-06-09T12:28:43.120Z,9.63
2018-06-09T12:29:46.516Z,10.83
2018-06-09T12:30:49.852Z,12.00
2018-06-09T12:31:53.280Z,9.27
2018-06-09T12:32:56.615Z,9.67
2018-06-09T12:33:59.992Z,17.70
2018-06-09T12:35:03.352Z,10.07
2018-06-09T12:36:06.748Z,15.43
2018-06-09T12:37:10.096Z,12.77
2018-06-09T12:38:13.452Z,13.97
2018-06-09T12:39:16.851Z,9.43
2018-06-09T12:40:20.263Z,12.03
2018-06-09T12:41:23.579Z,9.70
2018-06-09T12:42:26.947Z,9.20
2018-06-09T12:43:30.269Z,10.30
2018-06-09T12:44:33.595Z,8.60
2018-06-09T12:45:36.959Z,8.20
2018-06-09T12:46:40.303Z,8.40
2018-06-09T12:47:43.620Z,10.87
2018-06-09T12:48:47.011Z,10.60
2018-06-09T12:49:50.301Z,9.87
2018-06-09T12:50:53.635Z,9.43
2018-06-09T12:51:57.015Z,13.13
2018-06-09T12:53:00.370Z,17.23
2018-06-09T12:54:03.688Z,8.50
2018-06-09T12:55:07.025Z,12.30
2018-06-09T12:56:10.362Z,9.77
2018-06-09T12:57:13.740Z,8.67
2018-06-09T12:58:17.068Z,11.03
2018-06-09T12:59:20.401Z,8.60
2018-06-09T13:00:23.741Z,8.90
2018-06-09T13:01:27.118Z,8.70
2018-06-09T13:02:30.470Z,10.83
2018-06-09T13:03:33.788Z,13.67
2018-06-09T13:04:37.161Z,12.37
2018-06-09T13:05:40.499Z,10.10
2018-06-09T13:06:43.835Z,23.63
2018-06-09T13:07:47.169Z,9.67
2018-06-09T13:08:50.504Z,9.93
2018-06-09T13:09:53.876Z,7.90
2018-06-09T13:10:57.211Z,10.97
2018-06-09T13:12:00.542Z,9.07
2018-06-09T13:13:03.923Z,8.40
2018-06-09T13:14:07.313Z,7.77
2018-06-09T13:15:10.632Z,14.57
2018-06-09T13:16:14.037Z,9.60
2018-06-09T13:17:17.383Z,10.23
2018-06-09T13:18:20.760Z,7.83
2018-06-09T13:19:24.107Z,11.23
2018-06-09T13:20:27.439Z,8.13
2018-06-09T13:21:30.775Z,10.73
2018-06-09T13:22:34.098Z,8.57
2018-06-09T13:23:37.458Z,8.50
2018-06-09T13:24:40.784Z,8.93
2018-06-09T13:25:44.099Z,8.00
2018-06-09T13:26:47.416Z,6.93
2018-06-09T13:27:50.767Z,9.70
2018-06-09T13:28:54.099Z,16.03
2018-06-09T13:29:57.457Z,10.33
2018-06-09T13:31:00.829Z,8.93
2018-06-09T13:32:04.152Z,8.63
2018-06-09T13:33:07.489Z,10.50
2018-06-09T13:34:10.888Z,11.30
2018-06-09T13:35:14.228Z,8.77
2018-06-09T13:36:17.556Z,8.17
2018-06-09T13:37:20.895Z,8.20
2018-06-09T13:38:24.216Z,6.93
2018-06-09T13:39:27.578Z,8.30
2018-06-09T13:40:30.915Z,8.80
2018-06-09T13:41:34.499Z,9.50